createdAt,value
2019-03-08T00:00:35.499Z,9.30
2019-03-08T00:03:11.138Z,9.40
2019-03-08T00:05:42.347Z,9.40
2019-03-08T00:08:12.750Z,9.40
2019-03-08T00:10:54.901Z,9.40
2019-03-08T00:13:43.944Z,9.40
2019-03-08T00:16:28.211Z,9.30
2019-03-08T00:18:58.427Z,9.40
2019-03-08T00:21:33.120Z,9.40
2019-03-08T00:24:03.107Z,9.40
2019-03-08T00:26:33.164Z,9.40
2019-03-08T00:29:03.716Z,9.40
2019-03-08T00:31:33.784Z,9.40
2019-03-08T00:34:04.248Z,9.50
2019-03-08T00:36:37.545Z,9.50
2019-03-08T00:39:08.051Z,9.50
2019-03-08T00:41:38.285Z,9.50
2019-03-08T00:44:11.557Z,9.40
2019-03-08T00:46:41.666Z,9.40
2019-03-08T00:49:12.532Z,9.40
2019-03-08T00:51:42.639Z,9.40
2019-03-08T00:54:13.393Z,9.40
2019-03-08T00:57:08.277Z,9.40
2019-03-08T01:00:03.557Z,9.30
2019-03-08T01:03:06.129Z,9.20
2019-03-08T01:05:59.237Z,9.30
2019-03-08T01:08:40.347Z,9.30
2019-03-08T01:11:12.078Z,9.30
2019-03-08T01:13:43.299Z,9.30
2019-03-08T01:16:13.732Z,9.30
2019-03-08T01:18:44.058Z,9.30
2019-03-08T01:21:14.381Z,9.30
2019-03-08T01:23:44.363Z,9.30
2019-03-08T01:26:14.130Z,9.20
2019-03-08T01:28:44.298Z,9.20
2019-03-08T01:31:14.559Z,9.10
2019-03-08T01:33:47.185Z,9.10
2019-03-08T01:36:18.422Z,9.00
2019-03-08T01:38:55.474Z,9.00
2019-03-08T01:41:36.219Z,8.90
2019-03-08T01:44:17.310Z,8.90
2019-03-08T01:46:56.565Z,8.90
2019-03-08T01:49:40.485Z,8.90
2019-03-08T01:52:26.558Z,8.90
2019-03-08T01:54:59.950Z,9.00
2019-03-08T01:57:30.186Z,8.90
2019-03-08T02:00:00.473Z,8.90
2019-03-08T02:02:30.820Z,8.80
2019-03-08T02:05:00.950Z,8.80
2019-03-08T02:07:31.079Z,8.70
2019-03-08T02:10:01.527Z,8.70
2019-03-08T02:12:31.365Z,8.70
2019-03-08T02:15:01.483Z,8.70
2019-03-08T02:17:31.665Z,8.80
2019-03-08T02:20:02.893Z,8.80
2019-03-08T02:22:32.864Z,8.70
2019-03-08T02:25:02.750Z,8.60
2019-03-08T02:27:32.717Z,8.60
2019-03-08T02:30:02.622Z,8.50
2019-03-08T02:32:32.284Z,8.40
2019-03-08T02:35:02.211Z,8.40
2019-03-08T02:37:32.005Z,8.30
2019-03-08T02:40:03.261Z,8.30
2019-03-08T02:42:33.132Z,8.30
2019-03-08T02:45:02.913Z,8.30
2019-03-08T02:47:33.267Z,8.30
2019-03-08T02:50:03.273Z,8.30
2019-03-08T02:52:33.111Z,8.20
2019-03-08T02:55:13.235Z,8.10
2019-03-08T02:57:43.275Z,8.10
2019-03-08T03:00:17.734Z,8.00
2019-03-08T03:02:47.773Z,8.00
2019-03-08T03:05:17.371Z,8.00
2019-03-08T03:07:47.581Z,8.00
2019-03-08T03:10:17.407Z,8.00
2019-03-08T03:12:47.234Z,8.00
2019-03-08T03:15:16.913Z,8.00
2019-03-08T03:17:46.725Z,8.00
2019-03-08T03:20:17.084Z,8.00
2019-03-08T03:22:46.817Z,8.00
2019-03-08T03:25:16.913Z,8.00
2019-03-08T03:27:46.595Z,8.00
2019-03-08T03:30:16.413Z,8.00
2019-03-08T03:32:46.173Z,8.00
2019-03-08T03:35:15.825Z,8.00
2019-03-08T03:37:45.872Z,8.10
2019-03-08T03:40:18.367Z,8.10
2019-03-08T03:42:48.025Z,8.10
2019-03-08T03:45:18.178Z,8.20
2019-03-08T03:47:50.783Z,8.10
2019-03-08T03:50:24.152Z,8.10
2019-03-08T03:52:53.834Z,8.10
2019-03-08T03:55:23.463Z,8.10
2019-03-08T03:57:53.407Z,8.10
2019-03-08T04:00:24.490Z,8.10
2019-03-08T04:02:54.685Z,8.00
2019-03-08T04:05:24.311Z,7.80
2019-03-08T04:07:54.366Z,7.80
2019-03-08T04:10:24.151Z,7.60
2019-03-08T04:12:53.914Z,7.50
2019-03-08T04:15:24.043Z,7.40
2019-03-08T04:17:53.721Z,7.20
2019-03-08T04:20:23.777Z,7.00
2019-03-08T04:22:53.547Z,6.50
2019-03-08T04:25:23.428Z,6.30
2019-03-08T04:27:54.152Z,6.10
2019-03-08T04:30:24.091Z,6.10
2019-03-08T04:32:53.747Z,6.10
2019-03-08T04:35:23.423Z,6.00
2019-03-08T04:37:53.265Z,6.00
2019-03-08T04:40:23.173Z,6.00
2019-03-08T04:42:52.850Z,6.00
2019-03-08T04:45:22.630Z,6.00
2019-03-08T04:47:52.331Z,6.00
2019-03-08T04:50:22.348Z,5.90
2019-03-08T04:52:52.087Z,6.00
2019-03-08T04:55:21.884Z,6.00
2019-03-08T04:57:51.891Z,5.90
2019-03-08T05:00:21.674Z,6.00
2019-03-08T05:02:54.558Z,6.00
2019-03-08T05:05:27.178Z,6.00
2019-03-08T05:07:56.938Z,6.10
2019-03-08T05:10:27.016Z,6.00
2019-03-08T05:12:56.754Z,5.90
2019-03-08T05:15:27.336Z,6.00
2019-03-08T05:17:58.459Z,6.00
2019-03-08T05:20:28.701Z,6.00
2019-03-08T05:22:59.568Z,6.00
2019-03-08T05:25:29.468Z,5.90
2019-03-08T05:27:59.154Z,6.00
2019-03-08T05:30:32.103Z,6.00
2019-03-08T05:33:02.649Z,5.90
2019-03-08T05:35:35.080Z,5.90
2019-03-08T05:38:04.944Z,5.90
2019-03-08T05:40:34.595Z,5.90
2019-03-08T05:43:04.471Z,5.90
2019-03-08T05:45:34.274Z,5.90
2019-03-08T05:48:07.545Z,5.90
2019-03-08T05:50:39.349Z,6.00
2019-03-08T05:53:10.457Z,6.00
2019-03-08T05:55:40.205Z,6.10
2019-03-08T05:58:10.039Z,6.00
2019-03-08T06:00:40.444Z,6.10
2019-03-08T06:03:10.701Z,6.00
2019-03-08T06:05:40.791Z,6.00
2019-03-08T06:08:10.977Z,6.00
2019-03-08T06:10:40.750Z,6.10
2019-03-08T06:13:10.408Z,6.10
2019-03-08T06:15:41.162Z,6.00
2019-03-08T06:18:16.996Z,6.10
2019-03-08T06:20:42.933Z,6.00
2019-03-08T06:23:13.076Z,6.10
2019-03-08T06:25:48.122Z,6.10
2019-03-08T06:28:31.620Z,6.10
2019-03-08T06:31:03.002Z,6.10
2019-03-08T06:33:34.862Z,6.10
2019-03-08T06:36:11.746Z,6.20
2019-03-08T06:38:43.099Z,6.40
2019-03-08T06:41:12.879Z,6.50
2019-03-08T06:43:42.934Z,6.50
2019-03-08T06:46:17.013Z,6.50
2019-03-08T06:48:46.726Z,6.60
2019-03-08T06:51:20.100Z,6.60
2019-03-08T06:53:52.930Z,6.60
2019-03-08T06:56:23.058Z,6.60
2019-03-08T06:59:22.848Z,6.60
2019-03-08T07:01:52.911Z,6.60
2019-03-08T07:04:23.450Z,6.70
2019-03-08T07:06:53.211Z,6.80
2019-03-08T07:09:23.477Z,6.90
2019-03-08T07:12:00.789Z,6.80
2019-03-08T07:14:34.101Z,6.80
2019-03-08T07:17:03.975Z,6.80
2019-03-08T07:19:40.760Z,6.90
2019-03-08T07:22:16.612Z,7.00
2019-03-08T07:24:58.664Z,6.90
2019-03-08T07:27:47.346Z,7.00
2019-03-08T07:30:35.188Z,7.00
2019-03-08T07:33:24.249Z,7.10
2019-03-08T07:36:13.101Z,7.20
2019-03-08T07:39:28.981Z,7.20
2019-03-08T07:42:08.856Z,7.20
2019-03-08T07:44:57.108Z,7.30
2019-03-08T07:47:38.557Z,7.30
2019-03-08T07:50:41.027Z,7.40
2019-03-08T07:53:20.810Z,7.30
2019-03-08T07:55:57.839Z,7.40
2019-03-08T07:58:45.490Z,7.50
2019-03-08T08:01:40.612Z,7.50
2019-03-08T08:04:42.190Z,7.50
2019-03-08T08:07:21.757Z,7.50
2019-03-08T08:10:17.301Z,7.70
2019-03-08T08:13:21.832Z,7.70
2019-03-08T08:16:09.258Z,7.60
2019-03-08T08:19:13.492Z,7.70
2019-03-08T08:22:12.278Z,7.80
2019-03-08T08:25:10.231Z,7.70
2019-03-08T08:27:50.741Z,7.70
2019-03-08T08:31:00.039Z,7.80
2019-03-08T08:33:52.039Z,7.90
2019-03-08T08:36:32.195Z,7.90
2019-03-08T08:39:13.268Z,8.00
2019-03-08T08:42:14.324Z,8.00
2019-03-08T08:44:59.156Z,8.10
2019-03-08T08:48:02.624Z,8.20
2019-03-08T08:50:44.520Z,8.10
2019-03-08T08:53:31.432Z,8.20
2019-03-08T08:56:18.512Z,8.20
2019-03-08T08:59:16.122Z,8.00
2019-03-08T09:02:25.117Z,8.10
2019-03-08T09:05:16.963Z,8.20
2019-03-08T09:07:55.095Z,8.60
2019-03-08T09:10:49.587Z,8.70
2019-03-08T09:13:38.806Z,8.90
2019-03-08T09:16:17.955Z,8.80
2019-03-08T09:19:22.128Z,8.60
2019-03-08T09:22:08.650Z,8.40
2019-03-08T09:24:59.913Z,8.30
2019-03-08T09:27:36.651Z,8.40
2019-03-08T09:30:14.818Z,8.50
2019-03-08T09:32:58.873Z,8.40
2019-03-08T09:35:40.714Z,8.50
2019-03-08T09:38:36.595Z,8.50
2019-03-08T09:41:19.211Z,8.40
2019-03-08T09:44:06.427Z,8.30
2019-03-08T09:47:02.571Z,8.30
2019-03-08T09:49:57.006Z,8.30
2019-03-08T09:53:15.982Z,8.60
2019-03-08T09:56:58.048Z,8.70
2019-03-08T09:59:52.999Z,8.70
2019-03-08T10:02:48.295Z,8.80
2019-03-08T10:05:30.207Z,9.00
2019-03-08T10:08:22.089Z,9.10
2019-03-08T10:11:06.187Z,9.20
2019-03-08T10:14:02.884Z,9.20
2019-03-08T10:16:38.469Z,9.10
2019-03-08T10:19:36.233Z,9.10
2019-03-08T10:22:32.175Z,9.90
2019-03-08T10:25:12.934Z,10.20
2019-03-08T10:28:06.255Z,10.20
2019-03-08T10:30:55.219Z,10.90
2019-03-08T10:33:46.776Z,11.40
2019-03-08T10:36:26.992Z,11.30
2019-03-08T10:39:39.266Z,11.50
2019-03-08T10:42:31.329Z,12.60
2019-03-08T10:45:30.306Z,13.30
2019-03-08T10:48:03.588Z,12.80
2019-03-08T10:50:57.796Z,12.60
2019-03-08T10:53:57.730Z,12.60
2019-03-08T10:56:40.982Z,13.10
2019-03-08T10:59:45.339Z,13.10
2019-03-08T11:02:48.116Z,12.90
2019-03-08T11:05:46.265Z,12.20
2019-03-08T11:08:43.879Z,12.40
2019-03-08T11:11:38.486Z,12.70
2019-03-08T11:14:29.611Z,12.80
2019-03-08T11:17:10.262Z,12.70
2019-03-08T11:19:59.594Z,12.60
2019-03-08T11:22:46.940Z,12.30
2019-03-08T11:25:35.198Z,11.80
2019-03-08T11:28:46.196Z,11.00
2019-03-08T11:31:40.337Z,10.50
2019-03-08T11:34:35.471Z,10.60
2019-03-08T11:37:15.205Z,10.60
2019-03-08T11:40:07.262Z,10.70
2019-03-08T11:43:00.171Z,11.50
2019-03-08T11:45:45.666Z,11.50
2019-03-08T11:48:47.836Z,11.20
2019-03-08T11:51:35.496Z,10.70
2019-03-08T11:54:19.357Z,10.50
2019-03-08T11:57:17.210Z,10.20
2019-03-08T12:00:19.256Z,9.80
2019-03-08T12:03:12.839Z,9.30
2019-03-08T12:06:04.082Z,8.90
2019-03-08T12:09:09.587Z,8.70
2019-03-08T12:11:55.974Z,8.60
2019-03-08T12:14:45.788Z,8.90
2019-03-08T12:17:34.692Z,9.00
2019-03-08T12:20:35.247Z,9.00
2019-03-08T12:23:15.375Z,9.20
2019-03-08T12:26:11.199Z,9.90
2019-03-08T12:28:52.150Z,11.20
2019-03-08T12:32:03.035Z,11.90
2019-03-08T12:34:53.663Z,13.10
2019-03-08T12:37:48.367Z,13.00
2019-03-08T12:40:40.032Z,12.10
2019-03-08T12:43:46.546Z,11.20
2019-03-08T12:46:41.038Z,10.90
2019-03-08T12:49:38.642Z,10.50
2019-03-08T12:52:30.302Z,10.50
2019-03-08T12:55:33.292Z,10.50
2019-03-08T12:58:32.643Z,10.50
2019-03-08T13:01:35.851Z,10.40
2019-03-08T13:04:25.074Z,10.30
2019-03-08T13:07:23.277Z,10.40
2019-03-08T13:09:56.977Z,11.40
2019-03-08T13:12:28.143Z,12.60
2019-03-08T13:15:00.158Z,12.30
2019-03-08T13:17:30.967Z,11.60
2019-03-08T13:20:11.736Z,11.30
2019-03-08T13:22:48.042Z,10.90
2019-03-08T13:25:21.608Z,10.70
2019-03-08T13:27:57.176Z,10.60
2019-03-08T13:30:27.879Z,11.10
2019-03-08T13:33:01.305Z,12.20
2019-03-08T13:35:34.948Z,12.00
2019-03-08T13:38:07.189Z,11.50
2019-03-08T13:40:44.623Z,11.30
2019-03-08T13:43:17.660Z,11.10
2019-03-08T13:45:51.922Z,10.90
2019-03-08T13:48:28.947Z,10.80
2019-03-08T13:51:00.183Z,10.70
2019-03-08T13:55:16.140Z,10.70
2019-03-08T13:56:15.365Z,10.60
2019-03-08T13:58:46.308Z,10.90
2019-03-08T14:01:16.809Z,11.10
2019-03-08T14:03:49.661Z,11.20
2019-03-08T14:06:20.115Z,11.30
2019-03-08T14:08:53.134Z,11.50
2019-03-08T14:11:25.082Z,11.60
2019-03-08T14:13:57.297Z,11.70
2019-03-08T14:16:31.155Z,11.50
2019-03-08T14:19:03.760Z,11.30
2019-03-08T14:21:34.390Z,11.40
2019-03-08T14:24:10.777Z,11.60
2019-03-08T14:26:43.491Z,12.00
2019-03-08T14:29:14.356Z,11.90
2019-03-08T14:32:10.783Z,11.90
2019-03-08T14:34:40.931Z,11.80
2019-03-08T14:37:11.608Z,11.60
2019-03-08T14:39:44.254Z,11.60
2019-03-08T14:42:40.315Z,11.70
2019-03-08T14:45:22.657Z,11.70
2019-03-08T14:48:11.900Z,11.80
2019-03-08T14:51:03.037Z,11.70
2019-03-08T14:53:34.796Z,11.80
2019-03-08T14:56:09.116Z,11.70
2019-03-08T14:58:40.422Z,11.80
2019-03-08T15:01:16.420Z,11.80
2019-03-08T15:03:47.696Z,12.00
2019-03-08T15:06:28.045Z,12.00
2019-03-08T15:09:01.345Z,11.90
2019-03-08T15:11:35.251Z,11.80
2019-03-08T15:14:11.949Z,11.70
2019-03-08T15:16:42.347Z,11.70
2019-03-08T15:19:13.049Z,11.60
2019-03-08T15:21:48.193Z,11.70
2019-03-08T15:24:22.617Z,11.50
2019-03-08T15:26:53.112Z,11.50
2019-03-08T15:29:23.322Z,11.50
2019-03-08T15:31:58.720Z,11.50
2019-03-08T15:34:32.287Z,11.60
2019-03-08T15:37:04.950Z,11.70
2019-03-08T15:39:44.685Z,11.80
2019-03-08T15:42:18.388Z,11.80
2019-03-08T15:44:57.644Z,11.70
2019-03-08T15:47:27.602Z,11.80
2019-03-08T15:50:29.053Z,11.80
2019-03-08T15:53:06.755Z,11.70
2019-03-08T15:55:53.178Z,11.70
2019-03-08T15:58:22.106Z,11.70
2019-03-08T16:01:01.706Z,11.80
2019-03-08T16:03:45.470Z,11.80
2019-03-08T16:06:27.821Z,11.60
2019-03-08T16:11:43.666Z,11.20
2019-03-08T16:14:23.510Z,11.10
2019-03-08T16:16:57.940Z,11.10
2019-03-08T16:19:28.871Z,11.00
2019-03-08T16:22:05.229Z,11.00
2019-03-08T16:24:39.230Z,11.10
2019-03-08T16:27:13.437Z,11.10
2019-03-08T16:29:44.622Z,11.20
2019-03-08T16:32:28.830Z,11.10
2019-03-08T16:35:06.106Z,11.10
2019-03-08T16:38:10.759Z,11.20
2019-03-08T16:41:12.214Z,11.30
2019-03-08T16:44:10.887Z,11.30
2019-03-08T16:46:51.335Z,11.40
2019-03-08T16:49:51.964Z,11.40
2019-03-08T16:52:57.206Z,11.40
2019-03-08T16:56:04.481Z,11.30
2019-03-08T16:59:14.107Z,11.20
2019-03-08T17:02:34.819Z,11.20
2019-03-08T17:05:33.360Z,11.20
2019-03-08T17:08:38.711Z,11.30
2019-03-08T17:11:28.731Z,11.20
2019-03-08T17:14:16.506Z,11.10
2019-03-08T17:17:16.379Z,11.00
2019-03-08T17:19:58.784Z,10.90
2019-03-08T17:22:49.077Z,10.70
2019-03-08T17:26:02.570Z,10.70
2019-03-08T17:28:42.438Z,10.60
2019-03-08T17:31:32.821Z,10.60
2019-03-08T17:34:33.879Z,10.60
2019-03-08T17:37:21.168Z,10.60
2019-03-08T17:40:16.509Z,10.60
2019-03-08T17:43:14.296Z,10.50
2019-03-08T17:46:06.099Z,10.40
2019-03-08T17:48:55.614Z,10.40
2019-03-08T17:51:41.485Z,10.50
2019-03-08T17:54:50.547Z,10.50
2019-03-08T17:57:39.630Z,10.50
2019-03-08T18:00:31.322Z,10.40
2019-03-08T18:03:18.263Z,10.50
2019-03-08T18:06:18.875Z,10.50
2019-03-08T18:09:25.796Z,10.50
2019-03-08T18:12:13.012Z,10.60
2019-03-08T18:15:17.131Z,10.60
2019-03-08T18:18:04.193Z,10.60
2019-03-08T18:20:54.195Z,10.60
2019-03-08T18:23:49.027Z,10.60
2019-03-08T18:26:57.105Z,10.60
2019-03-08T18:29:45.793Z,10.60
2019-03-08T18:32:53.131Z,10.70
2019-03-08T18:35:48.951Z,10.70
2019-03-08T18:38:41.510Z,10.70
2019-03-08T18:41:33.804Z,10.70
2019-03-08T18:44:45.108Z,10.60
2019-03-08T18:47:36.526Z,10.60
2019-03-08T18:50:24.250Z,10.40
2019-03-08T18:53:14.529Z,10.40
2019-03-08T18:56:13.302Z,10.40
2019-03-08T18:59:02.369Z,10.40
2019-03-08T19:01:58.207Z,10.50
2019-03-08T19:04:52.587Z,10.50
2019-03-08T19:07:44.402Z,10.50
2019-03-08T19:10:39.438Z,10.50
2019-03-08T19:13:33.643Z,10.50
2019-03-08T19:16:45.178Z,10.50
2019-03-08T19:19:30.548Z,10.50
2019-03-08T19:22:28.446Z,10.50
2019-03-08T19:25:17.977Z,10.50
2019-03-08T19:28:07.188Z,10.50
2019-03-08T19:31:17.522Z,10.40
2019-03-08T19:34:16.425Z,10.30
2019-03-08T19:37:25.868Z,10.30
2019-03-08T19:40:27.986Z,10.40
2019-03-08T19:43:49.680Z,10.40
2019-03-08T19:46:54.467Z,10.40
2019-03-08T19:49:45.948Z,10.50
2019-03-08T19:52:42.788Z,10.40
2019-03-08T19:55:21.415Z,10.50
2019-03-08T19:58:27.807Z,10.40
2019-03-08T20:01:47.562Z,10.40
2019-03-08T20:05:05.083Z,10.40
2019-03-08T20:07:51.491Z,10.30
2019-03-08T20:10:55.747Z,10.40
2019-03-08T20:14:12.884Z,10.40
2019-03-08T20:17:18.506Z,10.30
2019-03-08T20:20:28.882Z,10.30
2019-03-08T20:23:29.494Z,10.40
2019-03-08T20:27:03.451Z,10.40
2019-03-08T20:30:14.626Z,10.40
2019-03-08T20:33:13.592Z,10.30
2019-03-08T20:36:28.736Z,10.30
2019-03-08T20:39:46.072Z,10.20
2019-03-08T20:43:09.729Z,10.20
2019-03-08T20:46:22.208Z,10.00
2019-03-08T20:49:41.192Z,10.00
2019-03-08T20:52:37.285Z,10.10
2019-03-08T20:55:34.184Z,10.10
2019-03-08T20:58:19.080Z,10.20
2019-03-08T21:01:25.601Z,10.20
2019-03-08T21:04:03.897Z,10.10
2019-03-08T21:06:41.823Z,10.10
2019-03-08T21:09:29.743Z,10.10
2019-03-08T21:12:06.349Z,10.00
2019-03-08T21:14:38.510Z,10.00
2019-03-08T21:17:14.288Z,10.00
2019-03-08T21:19:58.820Z,9.80
2019-03-08T21:22:46.484Z,9.80
2019-03-08T21:25:20.664Z,9.80
2019-03-08T21:27:52.677Z,9.90
2019-03-08T21:31:03.009Z,9.90
2019-03-08T21:33:50.795Z,10.00
2019-03-08T21:36:49.117Z,10.00
2019-03-08T21:39:21.762Z,10.10
2019-03-08T21:42:03.279Z,10.20
2019-03-08T21:44:39.151Z,10.30
2019-03-08T21:47:14.489Z,10.30
2019-03-08T21:49:50.638Z,10.30
2019-03-08T21:52:42.221Z,10.40
2019-03-08T21:55:06.854Z,10.30
2019-03-08T21:57:38.206Z,10.40
2019-03-08T22:00:33.451Z,10.40
2019-03-08T22:03:45.846Z,10.40
2019-03-08T22:06:11.777Z,10.40
2019-03-08T22:09:09.339Z,10.50
2019-03-08T22:11:51.151Z,10.50
2019-03-08T22:14:33.721Z,10.40
2019-03-08T22:17:19.761Z,10.50
2019-03-08T22:20:03.750Z,10.40
2019-03-08T22:22:50.345Z,10.50
2019-03-08T22:25:41.811Z,10.50
2019-03-08T22:28:12.111Z,10.40
2019-03-08T22:30:47.637Z,10.40
2019-03-08T22:33:27.147Z,10.40
2019-03-08T22:36:16.600Z,10.40
2019-03-08T22:39:00.327Z,10.40
2019-03-08T22:41:57.114Z,10.30
2019-03-08T22:44:27.624Z,10.20
2019-03-08T22:46:58.193Z,10.20
2019-03-08T22:49:29.012Z,10.10
2019-03-08T22:52:11.640Z,10.10
2019-03-08T22:54:48.414Z,10.10
2019-03-08T22:57:18.369Z,10.00
2019-03-08T22:59:48.320Z,10.00
2019-03-08T23:02:27.065Z,10.00
2019-03-08T23:04:57.612Z,10.00
2019-03-08T23:07:40.736Z,10.00
2019-03-08T23:10:16.812Z,10.00
2019-03-08T23:12:47.207Z,10.00
2019-03-08T23:15:20.976Z,10.00
2019-03-08T23:17:52.188Z,10.00
2019-03-08T23:20:26.271Z,10.00
2019-03-08T23:22:56.987Z,10.00
2019-03-08T23:25:45.765Z,10.00
2019-03-08T23:28:34.010Z,10.00
2019-03-08T23:31:41.220Z,10.00
2019-03-08T23:34:11.126Z,10.10
2019-03-08T23:36:46.064Z,10.20
2019-03-08T23:39:15.873Z,10.10
2019-03-08T23:41:47.364Z,10.20
2019-03-08T23:44:23.347Z,10.20
2019-03-08T23:46:54.659Z,10.10
2019-03-08T23:49:25.275Z,10.10
2019-03-08T23:51:58.365Z,10.10
2019-03-08T23:54:47.467Z,10.10
2019-03-08T23:57:18.821Z,10.10
2019-03-08T23:59:49.191Z,10.10
